Motte Rimrock Reserve, California Weather observations

Data are for 10 minute period ending at time listed.
 Day   Time   Solar   Ave.   Ave.  Ave.  Vector  Max.   Baro.   Total    
  of    of     Rad.   Air    Rel.  Wind   Wind   Wind  Press.  Precip.   
Year   Day            Temp.  Hum.  Speed  Dir.   Gust                    
2014   (PST)  Kw/m2    F      %     mph   deg.    mph    mb.     in.     
-------------------------------------------------------------------------
 258    1:50   0.00   84.7    26    0.6    52     2.5   943.5    0.00 
 258    2:00   0.00   84.7    26    2.9    35     3.4   943.4    0.00 
 258    2:10   0.00   84.8    26    0.3    30     2.3   943.3    0.00 
 258    2:20   0.00   85.0    26    0.9    57     3.2   943.3    0.00 
 258    2:30   0.00   84.0    28    1.0     3     2.1   943.2    0.00 
 258    2:40   0.00   83.3    30    3.9    42     5.1   943.2    0.00 
 258    2:50   0.00   82.3    33    4.6    59     5.3   943.3    0.00 
 258    3:00   0.00   81.6    34    4.3    62     5.8   943.3    0.00 
 258    3:10   0.00   81.0    36    4.5    50     6.1   943.3    0.00 
 258    3:20   0.00   80.7    37    4.5    50     5.5   943.3    0.00 
 258    3:30   0.00   81.0    36    4.5    43     5.5   943.3    0.00 
 258    3:40   0.00   81.8    36    3.2    40     3.9   943.3    0.00 
 258    3:50   0.00   80.6    37    2.2   126     3.7   943.4    0.00 
 258    4:00   0.00   78.3    38    2.2   221     2.9   943.4    0.00 
 258    4:10   0.00   78.3    38    1.5   210     2.3   943.5    0.00 
 258    4:20   0.00   78.6    38    2.1   299     2.5   943.5    0.00 
 258    4:30   0.00   80.3    36    2.5    70     3.4   943.7    0.00 
 258    4:40   0.00   79.8    37    1.7   162     2.3   943.8    0.00 
 258    4:50   0.00   79.3    39    0.8   189     1.5   943.9    0.00 
 258    5:00   0.00   79.2    39    1.2   162     2.0   944.0    0.00 
 258    5:10   0.00   80.0    38    1.9   181     2.3   944.0    0.00 
 258    5:20   0.00   80.0    38    1.1   220     1.8   944.1    0.00 
 258    5:30   0.00   80.0    38    1.2   234     1.9   944.2    0.00 
 258    5:40   0.00   80.0    39    2.1   173     2.9   944.2    0.00 
 258    5:50   0.00   79.5    39    3.1   161     3.4   944.4    0.00 
 258    6:00   0.03   79.5    39    3.5   160     4.3   944.4    0.00 
 258    6:10   0.06   79.5    38    4.0   170     4.8   944.5    0.00 
 258    6:20   0.08   79.9    36    3.7   206     3.9   944.5    0.00 
 258    6:30   0.11   80.9    35    1.9   198     3.4   944.5    0.00 
 258    6:40   0.15   82.8    33    0.8   178     1.5   944.5    0.00 
 258    6:50   0.18   84.3    31    0.4   205     1.3   944.5    0.00 
 258    7:00   0.21   84.3    31    2.0   188     3.0   944.5    0.00 
 258    7:10   0.25   85.1    31    1.9   116     4.0   944.5    0.00 
 258    7:20   0.29   86.6    29    1.6   110     2.9   944.5    0.00 
 258    7:30   0.32   87.8    28    0.8   103     1.7   944.4    0.00 
 258    7:40   0.36   89.6    26    0.9   119     1.8   944.4    0.00 
 258    7:50   0.39   89.6    26    1.6   122     3.0   944.4    0.00 
 258    8:00   0.43   90.3    26    1.8   107     3.1   944.3    0.00 
 258    8:10   0.46   91.1    24    0.4    83     1.6   944.3    0.00 
 258    8:20   0.49   92.4    23    1.9   105     3.3   944.4    0.00 
 258    8:30   0.53   92.0    24    4.1   118     5.9   944.4    0.00 
 258    8:40   0.56   92.2    23    2.8   172     5.8   944.4    0.00 
 258    8:50   0.59   93.9    21    2.1   134     4.5   944.4    0.00 
 258    9:00   0.61   94.7    20    3.4   149     5.8   944.5    0.00 
 258    9:10   0.64   94.9    20    3.2   179     5.6   944.5    0.00 
 258    9:20   0.67   95.3    20    4.2   180     7.1   944.5    0.00 
 258    9:30   0.69   95.9    20    3.5   196     6.0   944.5    0.00 
 258    9:40   0.72   96.1    20    2.9   209     7.0   944.5    0.00 
 258    9:50   0.74   96.7    19    3.8   174     7.6   944.5    0.00 
 258   10:00   0.76   97.1    19    3.3   217     7.7   944.5    0.00 
 258   10:10   0.78   98.1    18    3.0   249     5.7   944.5    0.00 
 258   10:20   0.80   99.6    17    2.6    22     5.6   944.5    0.00 
 258   10:30   0.81   99.0    18    4.2   115     7.3   944.5    0.00 
 258   10:40   0.83   99.8    16    3.6    79     7.1   944.5    0.00 
 258   10:50   0.84  101.0    14    3.5   105     9.2   944.5    0.00 
 258   11:00   0.85  101.0    14    5.6   152    12.3   944.4    0.00 
 258   11:10   0.86  101.3    14    6.0   138    11.2   944.4    0.00 
 258   11:20   0.87  100.6    14    4.7    91     9.3   944.3    0.00 
 258   11:30   0.87  101.6    14    3.7   232    10.8   944.2    0.00 
 258   11:40   0.87  100.9    14    5.2    41    10.9   944.1    0.00 
 258   11:50   0.87  101.1    15    4.4   100    11.8   944.0    0.00 
 258   12:00   0.87  102.6    14    2.5   161     8.4   944.0    0.00 
 258   12:10   0.87  102.6    14    4.0   105     6.9   943.9    0.00 
 258   12:20   0.86  102.8    14    3.7   175    11.2   943.7    0.00 
 258   12:30   0.85  102.1    14    7.5   202    12.9   943.6    0.00 
 258   12:40   0.85  101.8    14    6.2   260    11.8   943.5    0.00 
 258   12:50   0.84  101.3    15    7.3   256    11.2   943.4    0.00 
 258   13:00   0.86  103.1    14    5.4   229    11.2   943.3    0.00 
 258   13:10   0.79  103.7    14    5.1   183    12.5   943.1    0.00 
 258   13:20   0.86  103.8    14    9.9   137    14.7   943.0    0.00 
 258   13:30   0.80  102.6    14    4.4   126    10.7   942.9    0.00 
 258   13:40   0.82  103.5    14    5.7   151    11.1   942.7    0.00 
 258   13:50   0.81  103.0    14    6.4   169    11.0   942.6    0.00 
 258   14:00   0.79  103.9    14    4.0   113     9.0   942.5    0.00 
 258   14:10   0.70  103.9    13    5.1   341    13.6   942.4    0.00 
 258   14:20   0.33  101.7    15   10.5   280    16.2   942.3    0.00 
 258   14:30   0.75  101.6    16   16.3   300    25.6   942.1    0.00 
 258   14:40   0.71  101.6    15   15.5   291    22.3   942.0    0.00 
 258   14:50   0.66  102.3    15   14.4   306    19.1   942.1    0.00 
 258   15:00   0.49  101.4    16   15.7   294    22.3   942.0    0.00 
 258   15:10   0.57  100.9    17   18.3   299    24.2   941.9    0.00 
 258   15:20   0.51  100.1    17   19.2   305    24.0   941.8    0.00 
 258   15:30   0.46  100.1    16   18.3   295    23.2   941.8    0.00 
 258   15:40   0.43   99.7    16   17.5   296    22.1   941.7    0.00 
 258   15:50   0.39   99.4    17   18.1   296    24.0   941.7    0.00 
 258   16:00   0.36   98.9    18   19.4   292    23.7   941.6    0.00 
 258   16:10   0.32   98.3    19   18.4   287    23.9   941.6    0.00 
 258   16:20   0.28   97.9    19   18.1   292    23.8   941.5    0.00 
 258   16:30   0.25   97.6    20   17.5   293    22.2   941.5    0.00 
 258   16:40   0.22   97.1    20   17.2   303    24.3   941.6    0.00 
 258   16:50   0.18   96.5    20   17.8   297    23.2   941.6    0.00 
 258   17:00   0.15   95.8    20   16.5   296    21.5   941.7    0.00 
 258   17:10   0.12   95.3    20   15.8   292    22.0   941.7    0.00 
 258   17:20   0.09   94.9    20   15.6   294    22.8   941.8    0.00 
 258   17:30   0.07   94.1    21   15.3   295    20.5   941.8    0.00 
 258   17:40   0.04   93.5    21   12.3   291    20.8   941.9    0.00 
 258   17:50   0.03   92.9    22   12.3   296    17.6   941.9    0.00 
 258   18:00   0.01   92.4    22   13.6   296    18.0   941.8    0.00 
 258   18:10   0.01   92.1    22   12.6   299    16.5   941.8    0.00 
 258   18:20   0.01   91.9    22   13.6   306    17.5   941.9    0.00 
 258   18:30   0.00   91.4    22   13.4   301    16.4   942.0    0.00 
 258   18:40   0.00   91.0    22   12.3   310    16.4   942.2    0.00 
 258   18:50   0.00   90.4    23    8.4   341    12.4   942.5    0.00 
 258   19:00   0.00   89.7    24    6.1     2     9.6   942.7    0.00 
 258   19:10   0.00   88.7    25    3.1    92     5.3   943.1    0.00 
 258   19:20   0.00   88.1    25    3.5   108     6.1   943.3    0.00 
 258   19:30   0.00   88.4    25    4.4    40     5.6   943.4    0.00 
 258   19:40   0.00   88.3    25    4.3    29     6.2   943.6    0.00 
 258   19:50   0.00   88.1    25    4.4    35     5.6   943.7    0.00 
 258   20:00   0.00   88.3    24    4.8    36     5.6   943.7    0.00 
 258   20:10   0.00   88.5    24    4.2    39     5.6   943.7    0.00 
 258   20:20   0.00   88.6    24    3.9    50     4.6   943.8    0.00 
 258   20:30   0.00   88.0    24    3.4    78     4.0   943.8    0.00 
 258   20:40   0.00   87.8    24    4.6    70     6.1   943.9    0.00 
 258   20:50   0.00   88.0    24    4.8    65     5.8   943.9    0.00 
 258   21:00   0.00   87.8    24    5.3    80     6.1   944.0    0.00 
 258   21:10   0.00   87.2    25    4.3   110     5.2   944.1    0.00 
 258   21:20   0.00   85.5    27    2.9   154     4.7   944.2    0.00 
 258   21:30   0.00   85.3    27    3.9   190     5.6   944.2    0.00 
 258   21:40   0.00   86.1    27    2.0   212     3.0   944.3    0.00 
 258   21:50   0.00   86.0    27    1.1   241     2.0   944.3    0.00 
 258   22:00   0.00   86.0    27    2.4   253     2.9   944.2    0.00 
 258   22:10   0.00   86.2    26    2.4   261     2.9   944.2    0.00 
 258   22:20   0.00   86.1    27    2.5   231     3.1   944.2    0.00 
 258   22:30   0.00   86.3    27    3.1   206     3.4   944.3    0.00 
 258   22:40   0.00   85.9    27    3.3   194     4.2   944.3    0.00 
 258   22:50   0.00   85.5    27    4.4   205     5.0   944.3    0.00 
 258   23:00   0.00   85.4    28    4.3   193     5.2   944.3    0.00 
 258   23:10   0.00   84.6    28    4.2   182     5.0   944.3    0.00 
 258   23:20   0.00   84.3    30    4.2   194     5.2   944.3    0.00 
 258   23:30   0.00   84.3    31    2.8   197     3.5   944.3    0.00 
 258   23:40   0.00   84.7    31    2.1   210     2.9   944.2    0.00 
 258   23:50   0.00   85.4    31    1.1   212     1.9   944.1    0.00 
 259    0:00   0.00   85.7    30    2.0   191     2.5   944.1    0.00 
 259    0:10   0.00   85.7    30    2.0   172     2.6   944.0    0.00 
 259    0:20   0.00   85.5    31    3.2   157     5.1   944.0    0.00 
 259    0:30   0.00   83.9    33    2.6   139     4.4   944.0    0.00 
 259    0:40   0.00   84.5    32    2.5   137     3.8   944.1    0.00 
 259    0:50   0.00   83.9    33    3.1   129     4.7   944.1    0.00 
 259    1:00   0.00   82.7    36    2.3   132     4.5   944.1    0.00 
 259    1:10   0.00   83.0    35    1.1   135     1.9   943.9    0.00 
 259    1:20   0.00   83.7    33    0.9   130     1.8   943.9    0.00 
 259    1:30   0.00   83.6    34    2.1    80     4.2   943.9    0.00 
 259    1:40   0.00   82.4    36    3.3    76     4.2   944.0    0.00 

Return to Motte Rimrock Reserve graphs page.


Western Regional Climate Center,wrcc@dri.edu